createdAt,value
2019-02-19T00:01:30.000Z,6.97
2019-02-19T00:04:00.440Z,4.20
2019-02-19T00:06:30.936Z,6.47
2019-02-19T00:09:01.588Z,2.60
2019-02-19T00:11:32.082Z,2.90
2019-02-19T00:14:02.637Z,2.63
2019-02-19T00:16:33.049Z,3.13
2019-02-19T00:19:03.479Z,5.40
2019-02-19T00:21:33.938Z,3.50
2019-02-19T00:24:04.446Z,4.50
2019-02-19T00:26:34.849Z,8.43
2019-02-19T00:29:05.273Z,5.97
2019-02-19T00:31:35.677Z,4.27
2019-02-19T00:34:06.075Z,2.93
2019-02-19T00:36:36.510Z,4.63
2019-02-19T00:39:07.888Z,2.37
2019-02-19T00:41:38.319Z,3.60
2019-02-19T00:44:08.716Z,5.63
2019-02-19T00:46:39.214Z,5.63
2019-02-19T00:49:09.665Z,3.53
2019-02-19T00:51:40.073Z,3.27
2019-02-19T00:54:10.498Z,5.50
2019-02-19T00:56:40.940Z,3.67
2019-02-19T00:59:11.389Z,9.63
2019-02-19T01:01:41.800Z,7.37
2019-02-19T01:04:12.241Z,5.17
2019-02-19T01:06:42.645Z,2.80
2019-02-19T01:09:13.100Z,9.70
2019-02-19T01:11:43.534Z,2.83
2019-02-19T01:14:13.984Z,3.70
2019-02-19T01:16:44.437Z,5.07
2019-02-19T01:19:14.901Z,5.60
2019-02-19T01:21:45.480Z,6.47
2019-02-19T01:24:15.873Z,7.50
2019-02-19T01:26:46.283Z,4.47
2019-02-19T01:29:17.017Z,4.43
2019-02-19T01:31:47.471Z,3.87
2019-02-19T01:34:18.028Z,4.03
2019-02-19T01:36:48.476Z,6.47
2019-02-19T01:39:18.892Z,6.43
2019-02-19T01:41:49.283Z,4.60
2019-02-19T01:44:19.739Z,5.60
2019-02-19T01:46:50.180Z,4.77
2019-02-19T01:49:20.620Z,3.93
2019-02-19T01:51:51.045Z,4.60
2019-02-19T01:54:21.458Z,5.03
2019-02-19T01:56:51.943Z,6.87
2019-02-19T01:59:22.355Z,3.60
2019-02-19T02:01:52.781Z,6.13
2019-02-19T02:04:23.191Z,4.73
2019-02-19T02:06:53.641Z,5.83
2019-02-19T02:09:24.080Z,9.27
2019-02-19T02:11:54.561Z,5.40
2019-02-19T02:14:24.980Z,9.43
2019-02-19T02:16:55.748Z,7.27
2019-02-19T02:19:26.212Z,6.60
2019-02-19T02:21:56.620Z,9.93
2019-02-19T02:24:27.017Z,7.80
2019-02-19T02:26:57.422Z,9.13
2019-02-19T02:29:27.862Z,10.10
2019-02-19T02:31:58.270Z,7.40
2019-02-19T02:34:28.677Z,5.87
2019-02-19T02:36:59.093Z,9.10
2019-02-19T02:39:29.556Z,9.23
2019-02-19T02:41:59.988Z,9.70
2019-02-19T02:44:30.443Z,5.20
2019-02-19T02:47:00.888Z,5.33
2019-02-19T02:49:31.327Z,5.80
2019-02-19T02:52:01.730Z,12.20
2019-02-19T02:54:32.161Z,6.93
2019-02-19T02:57:02.607Z,7.50
2019-02-19T02:59:33.032Z,10.00
2019-02-19T03:02:03.517Z,9.73
2019-02-19T03:04:33.958Z,6.37
2019-02-19T03:07:12.195Z,20.40
2019-02-19T03:09:42.512Z,8.77
2019-02-19T03:12:12.943Z,5.60
2019-02-19T03:14:43.431Z,7.30
2019-02-19T03:17:13.903Z,7.93
2019-02-19T03:19:46.201Z,9.53
2019-02-19T03:22:16.830Z,5.23
2019-02-19T03:24:49.273Z,5.10
2019-02-19T03:27:19.677Z,5.53
2019-02-19T03:29:50.113Z,5.20
2019-02-19T03:32:21.106Z,4.77
2019-02-19T03:34:51.532Z,16.40
2019-02-19T03:37:21.966Z,6.53
2019-02-19T03:39:52.392Z,17.47
2019-02-19T03:42:23.255Z,6.67
2019-02-19T03:44:53.700Z,6.90
2019-02-19T03:47:24.146Z,7.83
2019-02-19T03:49:54.589Z,4.70
2019-02-19T03:52:25.127Z,6.83
2019-02-19T03:54:55.572Z,5.50
2019-02-19T03:57:26.017Z,7.63
2019-02-19T03:59:56.428Z,5.30
2019-02-19T04:02:26.875Z,10.03
2019-02-19T04:04:57.291Z,4.87
2019-02-19T04:07:27.835Z,4.23
2019-02-19T04:09:58.331Z,6.03
2019-02-19T04:12:28.798Z,6.30
2019-02-19T04:14:59.283Z,4.73
2019-02-19T04:17:29.700Z,8.37
2019-02-19T04:20:00.283Z,6.20
2019-02-19T04:22:30.787Z,4.40
2019-02-19T04:25:01.248Z,3.70
2019-02-19T04:27:31.712Z,5.10
2019-02-19T04:30:02.138Z,6.20
2019-02-19T04:32:32.582Z,15.57
2019-02-19T04:35:03.051Z,5.10
2019-02-19T04:37:33.476Z,7.33
2019-02-19T04:40:03.945Z,5.13
2019-02-19T04:42:34.377Z,6.53
2019-02-19T04:45:05.368Z,5.37
2019-02-19T04:47:35.877Z,7.10
2019-02-19T04:50:06.945Z,7.70
2019-02-19T04:52:37.460Z,4.00
2019-02-19T04:55:08.036Z,6.00
2019-02-19T04:57:38.490Z,4.53
2019-02-19T05:00:11.598Z,5.47
2019-02-19T05:02:42.044Z,9.23
2019-02-19T05:05:12.767Z,5.40
2019-02-19T05:07:43.164Z,7.83
2019-02-19T05:10:13.631Z,9.60
2019-02-19T05:12:44.947Z,7.13
2019-02-19T05:15:15.390Z,8.20
2019-02-19T05:17:45.841Z,7.57
2019-02-19T05:20:16.256Z,5.00
2019-02-19T05:22:46.687Z,4.77
2019-02-19T05:25:17.139Z,6.90
2019-02-19T05:27:47.754Z,13.10
2019-02-19T05:30:18.224Z,8.57
2019-02-19T05:32:48.665Z,6.40
2019-02-19T05:35:19.111Z,13.20
2019-02-19T05:37:49.547Z,11.30
2019-02-19T05:40:19.943Z,10.33
2019-02-19T05:42:50.388Z,8.47
2019-02-19T05:45:20.833Z,7.83
2019-02-19T05:47:51.267Z,5.30
2019-02-19T05:50:21.682Z,4.90
2019-02-19T05:52:52.275Z,6.87
2019-02-19T05:55:22.679Z,7.63
2019-02-19T05:57:53.140Z,27.33
2019-02-19T06:00:23.793Z,15.53
2019-02-19T06:02:54.221Z,4.87
2019-02-19T06:05:24.691Z,8.40
2019-02-19T06:07:55.152Z,5.27
2019-02-19T06:10:25.593Z,7.80
2019-02-19T06:12:56.069Z,8.33
2019-02-19T06:15:28.411Z,5.07
2019-02-19T06:17:58.860Z,7.50
2019-02-19T06:20:29.275Z,9.73
2019-02-19T06:22:59.757Z,7.87
2019-02-19T06:25:30.171Z,5.43
2019-02-19T06:28:00.596Z,5.30
2019-02-19T06:30:31.061Z,5.30
2019-02-19T06:33:01.471Z,6.23
2019-02-19T06:35:32.112Z,8.40
2019-02-19T06:38:02.535Z,7.80
2019-02-19T06:40:33.063Z,6.37
2019-02-19T06:43:03.522Z,6.07
2019-02-19T06:45:33.956Z,10.90
2019-02-19T06:48:04.415Z,6.50
2019-02-19T06:50:34.877Z,5.80
2019-02-19T06:53:05.291Z,7.30
2019-02-19T06:55:35.756Z,12.60
2019-02-19T06:58:06.328Z,7.57
2019-02-19T07:00:36.768Z,6.73
2019-02-19T07:03:41.487Z,6.70
2019-02-19T07:06:11.928Z,8.43
2019-02-19T07:08:42.336Z,7.50
2019-02-19T07:11:12.764Z,5.33
2019-02-19T07:13:44.524Z,4.00
2019-02-19T07:16:14.948Z,4.83
2019-02-19T07:18:45.397Z,4.90
2019-02-19T07:21:15.838Z,9.30
2019-02-19T07:23:46.282Z,4.70
2019-02-19T07:26:16.728Z,5.00
2019-02-19T07:28:47.168Z,5.60
2019-02-19T07:31:17.577Z,7.50
2019-02-19T07:33:47.989Z,5.57
2019-02-19T07:36:18.446Z,9.27
2019-02-19T07:38:48.922Z,8.10
2019-02-19T07:41:19.320Z,7.50
2019-02-19T07:43:49.789Z,7.10
2019-02-19T07:46:20.214Z,14.47
2019-02-19T07:48:50.648Z,6.80
2019-02-19T07:51:21.075Z,14.70
2019-02-19T07:53:51.499Z,14.73
2019-02-19T07:56:21.938Z,8.50
2019-02-19T07:58:52.352Z,8.43
2019-02-19T08:01:22.739Z,12.13
2019-02-19T08:03:53.184Z,12.70
2019-02-19T08:06:23.576Z,8.30
2019-02-19T08:08:54.086Z,10.73
2019-02-19T08:11:24.472Z,9.10
2019-02-19T08:13:54.925Z,12.40
2019-02-19T08:16:25.381Z,10.97
2019-02-19T08:18:55.816Z,18.63
2019-02-19T08:21:26.263Z,9.70
2019-02-19T08:23:56.710Z,16.40
2019-02-19T08:26:27.180Z,9.73
2019-02-19T08:29:11.393Z,8.17
2019-02-19T08:31:29.740Z,9.43
2019-02-19T08:34:00.156Z,15.83
2019-02-19T08:36:30.697Z,11.30
2019-02-19T08:39:01.161Z,10.53
2019-02-19T08:41:31.690Z,10.67
2019-02-19T08:44:02.303Z,17.60
2019-02-19T08:46:32.830Z,10.20
2019-02-19T08:49:03.297Z,11.00
2019-02-19T08:51:33.909Z,8.00
2019-02-19T08:54:04.402Z,11.07
2019-02-19T08:56:34.885Z,9.37
2019-02-19T08:59:05.363Z,11.40
2019-02-19T09:01:36.245Z,9.27
2019-02-19T09:04:06.698Z,17.87
2019-02-19T09:06:37.135Z,14.47
2019-02-19T09:09:08.712Z,10.20
2019-02-19T09:11:39.188Z,11.07
2019-02-19T09:14:09.684Z,14.07
2019-02-19T09:16:40.136Z,13.60
2019-02-19T09:19:10.763Z,9.00
2019-02-19T09:21:41.296Z,10.40
2019-02-19T09:24:11.768Z,10.63
2019-02-19T09:26:42.245Z,14.63
2019-02-19T09:29:12.723Z,13.30
2019-02-19T09:31:43.221Z,14.50
2019-02-19T09:34:14.619Z,13.63
2019-02-19T09:36:45.114Z,13.17
2019-02-19T09:39:15.563Z,13.87
2019-02-19T09:41:46.002Z,11.43
2019-02-19T09:44:16.464Z,12.00
2019-02-19T09:46:47.268Z,12.30
2019-02-19T09:49:17.900Z,8.73
2019-02-19T09:51:48.319Z,10.60
2019-02-19T09:54:18.774Z,12.87
2019-02-19T09:56:49.446Z,13.27
2019-02-19T09:59:20.232Z,12.47
2019-02-19T10:01:50.696Z,23.13
2019-02-19T10:04:21.188Z,11.53
2019-02-19T10:06:51.637Z,24.33
2019-02-19T10:09:22.163Z,14.10
2019-02-19T10:11:52.756Z,10.30
2019-02-19T10:14:23.270Z,15.80
2019-02-19T10:16:53.750Z,25.03
2019-02-19T10:19:25.996Z,14.40
2019-02-19T10:21:56.530Z,17.90
2019-02-19T10:24:27.012Z,15.83
2019-02-19T10:26:57.496Z,12.80
2019-02-19T10:29:28.831Z,13.27
2019-02-19T10:31:59.282Z,13.03
2019-02-19T10:34:29.802Z,11.57
2019-02-19T10:37:00.527Z,17.10
2019-02-19T10:39:31.028Z,12.60
2019-02-19T10:42:01.514Z,14.50
2019-02-19T10:44:32.013Z,27.10
2019-02-19T10:47:02.462Z,14.13
2019-02-19T10:49:32.997Z,12.00
2019-02-19T10:52:03.487Z,15.83
2019-02-19T10:54:33.983Z,15.57
2019-02-19T10:57:04.499Z,13.53
2019-02-19T10:59:35.202Z,13.10
2019-02-19T11:02:05.737Z,12.37
2019-02-19T11:04:36.204Z,11.50
2019-02-19T11:07:16.232Z,13.83
2019-02-19T11:09:46.762Z,11.47
2019-02-19T11:12:17.265Z,14.50
2019-02-19T11:14:47.790Z,15.13
2019-02-19T11:17:19.809Z,12.70
2019-02-19T11:19:50.597Z,18.37
2019-02-19T11:22:21.053Z,12.27
2019-02-19T11:24:51.517Z,8.80
2019-02-19T11:27:21.984Z,10.93
2019-02-19T11:29:52.479Z,12.17
2019-02-19T11:32:23.023Z,11.87
2019-02-19T11:34:53.546Z,10.53
2019-02-19T11:37:24.029Z,18.10
2019-02-19T11:39:54.512Z,15.67
2019-02-19T11:42:25.439Z,19.10
2019-02-19T11:44:55.970Z,8.87
2019-02-19T11:47:26.852Z,14.13
2019-02-19T11:49:57.439Z,14.17
2019-02-19T11:52:27.920Z,20.50
2019-02-19T11:54:58.564Z,10.90
2019-02-19T11:57:29.082Z,19.70
2019-02-19T11:59:59.618Z,16.60
2019-02-19T12:02:32.966Z,15.87
2019-02-19T12:05:02.337Z,12.27
2019-02-19T12:07:32.850Z,12.83
2019-02-19T12:10:03.346Z,13.43
2019-02-19T12:12:33.810Z,13.53
2019-02-19T12:15:06.606Z,9.50
2019-02-19T12:17:37.134Z,16.10
2019-02-19T12:20:08.154Z,14.90
2019-02-19T12:22:38.660Z,10.80
2019-02-19T12:25:09.199Z,11.53
2019-02-19T12:27:39.633Z,12.60
2019-02-19T12:30:12.184Z,18.27
2019-02-19T12:32:42.639Z,10.03
2019-02-19T12:35:13.079Z,7.07
2019-02-19T12:37:43.518Z,14.23
2019-02-19T12:40:13.979Z,6.20
2019-02-19T12:42:44.375Z,8.73
2019-02-19T12:45:14.911Z,8.90
2019-02-19T12:47:45.345Z,5.13
2019-02-19T12:50:15.931Z,4.53
2019-02-19T12:52:46.431Z,7.00
2019-02-19T12:55:16.874Z,4.20
2019-02-19T12:57:47.415Z,2.20
2019-02-19T13:00:18.490Z,6.20
2019-02-19T13:02:49.145Z,4.77
2019-02-19T13:05:19.533Z,6.20
2019-02-19T13:07:49.989Z,5.43
2019-02-19T13:10:20.387Z,2.10
2019-02-19T13:12:50.834Z,3.27
2019-02-19T13:15:21.282Z,4.10
2019-02-19T13:17:51.748Z,4.40
2019-02-19T13:20:22.226Z,2.20
2019-02-19T13:22:52.643Z,2.40
2019-02-19T13:25:23.043Z,1.60
2019-02-19T13:27:53.451Z,3.80
2019-02-19T13:30:24.395Z,3.57
2019-02-19T13:32:54.930Z,3.23
2019-02-19T13:35:25.374Z,2.43
2019-02-19T13:37:55.935Z,5.70
2019-02-19T13:40:26.581Z,2.50
2019-02-19T13:42:57.032Z,4.90
2019-02-19T13:45:27.588Z,4.70
2019-02-19T13:48:05.681Z,5.07
2019-02-19T13:50:30.364Z,2.23
2019-02-19T13:53:19.786Z,4.77
2019-02-19T13:55:52.798Z,7.30
2019-02-19T13:58:23.202Z,3.90
2019-02-19T14:00:53.634Z,3.67
2019-02-19T14:03:24.084Z,1.93
2019-02-19T14:05:54.520Z,7.50
2019-02-19T14:08:24.966Z,3.03
2019-02-19T14:10:55.414Z,4.40
2019-02-19T14:13:25.854Z,3.23
2019-02-19T14:16:13.165Z,1.73
2019-02-19T14:19:05.242Z,1.50
2019-02-19T14:21:57.494Z,2.20
2019-02-19T14:24:56.042Z,1.63
2019-02-19T14:27:48.208Z,6.23
2019-02-19T14:30:43.593Z,4.50
2019-02-19T14:33:31.862Z,7.03
2019-02-19T14:36:20.160Z,3.37
2019-02-19T14:39:12.461Z,7.20
2019-02-19T14:42:01.675Z,1.80
2019-02-19T14:44:49.951Z,4.70
2019-02-19T14:47:39.293Z,2.07
2019-02-19T14:50:37.457Z,3.13
2019-02-19T14:53:39.140Z,5.87
2019-02-19T14:56:19.106Z,3.30
2019-02-19T14:59:07.282Z,5.17
2019-02-19T15:01:56.586Z,5.10
2019-02-19T15:04:44.861Z,1.77
2019-02-19T15:07:52.646Z,2.17
2019-02-19T15:10:41.136Z,2.50
2019-02-19T15:13:17.716Z,6.67
2019-02-19T15:16:00.428Z,8.90
2019-02-19T15:18:48.309Z,6.90
2019-02-19T15:21:36.409Z,4.30
2019-02-19T15:24:36.811Z,2.30
2019-02-19T15:27:32.151Z,5.47
2019-02-19T15:30:24.961Z,6.47
2019-02-19T15:33:13.475Z,7.57
2019-02-19T15:36:08.535Z,3.50
2019-02-19T15:39:00.814Z,3.13
2019-02-19T15:41:50.112Z,2.17
2019-02-19T15:44:39.485Z,3.93
2019-02-19T15:47:38.891Z,2.83
2019-02-19T15:50:34.221Z,1.80
2019-02-19T15:53:26.671Z,2.83
2019-02-19T15:56:27.982Z,7.13
2019-02-19T15:59:21.987Z,10.97
2019-02-19T16:02:11.363Z,3.00
2019-02-19T16:04:57.073Z,7.10
2019-02-19T16:07:36.712Z,1.43
2019-02-19T16:10:24.133Z,1.60
2019-02-19T16:13:16.889Z,2.00
2019-02-19T16:16:05.235Z,2.93
2019-02-19T16:18:43.336Z,2.30
2019-02-19T16:21:41.638Z,10.17
2019-02-19T16:24:33.957Z,4.23
2019-02-19T16:27:29.548Z,6.30
2019-02-19T16:30:06.998Z,4.77
2019-02-19T16:32:56.298Z,4.00
2019-02-19T16:35:52.372Z,2.43
2019-02-19T16:38:44.917Z,7.10
2019-02-19T16:41:49.447Z,2.03
2019-02-19T16:44:43.533Z,2.83
2019-02-19T16:47:38.837Z,1.87
2019-02-19T16:50:35.079Z,1.77
2019-02-19T16:53:18.912Z,2.33
2019-02-19T16:56:16.431Z,7.37
2019-02-19T16:58:55.954Z,2.57
2019-02-19T17:01:42.838Z,4.03
2019-02-19T17:04:25.750Z,2.60
2019-02-19T17:07:14.093Z,9.00
2019-02-19T17:10:06.486Z,4.53
2019-02-19T17:12:54.427Z,1.90
2019-02-19T17:15:38.003Z,1.40
2019-02-19T17:18:23.136Z,6.53
2019-02-19T17:20:59.725Z,5.90
2019-02-19T17:23:41.255Z,3.57
2019-02-19T17:26:23.013Z,1.00
2019-02-19T17:29:18.682Z,2.80
2019-02-19T17:32:03.275Z,3.97
2019-02-19T17:34:44.899Z,13.73
2019-02-19T17:37:22.444Z,6.70
2019-02-19T17:40:20.711Z,2.20
2019-02-19T17:43:08.226Z,2.37
2019-02-19T17:46:06.894Z,6.07
2019-02-19T17:48:55.022Z,3.60
2019-02-19T17:51:43.025Z,8.23
2019-02-19T17:54:32.332Z,7.40
2019-02-19T17:57:08.998Z,6.73
2019-02-19T17:59:46.721Z,9.37
2019-02-19T18:02:47.845Z,5.53
2019-02-19T18:05:46.400Z,3.93
2019-02-19T18:08:34.610Z,2.47
2019-02-19T18:11:36.221Z,9.83
2019-02-19T18:14:28.301Z,6.07
2019-02-19T18:17:13.345Z,3.00
2019-02-19T18:19:43.820Z,3.87
2019-02-19T18:22:14.365Z,6.40
2019-02-19T18:24:45.111Z,7.80
2019-02-19T18:27:15.575Z,6.00
2019-02-19T18:29:46.011Z,3.03
2019-02-19T18:32:16.533Z,2.83
2019-02-19T18:34:47.253Z,4.83
2019-02-19T18:37:17.747Z,2.00
2019-02-19T18:39:48.182Z,3.63
2019-02-19T18:42:18.706Z,2.33
2019-02-19T18:44:49.191Z,4.60
2019-02-19T18:47:19.656Z,1.67
2019-02-19T18:49:50.146Z,4.10
2019-02-19T18:52:20.617Z,5.23
2019-02-19T18:54:51.033Z,1.90
2019-02-19T18:57:21.498Z,3.60
2019-02-19T18:59:51.932Z,2.27
2019-02-19T19:02:22.433Z,9.23
2019-02-19T19:04:52.909Z,4.53
2019-02-19T19:07:23.436Z,2.00
2019-02-19T19:09:53.889Z,5.03
2019-02-19T19:12:24.375Z,2.80
2019-02-19T19:14:54.858Z,5.97
2019-02-19T19:17:25.371Z,2.67
2019-02-19T19:19:56.084Z,2.40
2019-02-19T19:22:26.609Z,1.47
2019-02-19T19:24:57.047Z,10.47
2019-02-19T19:27:27.518Z,2.90
2019-02-19T19:29:57.967Z,3.70
2019-02-19T19:32:28.769Z,6.73
2019-02-19T19:34:59.287Z,3.57
2019-02-19T19:37:29.788Z,1.67
2019-02-19T19:40:00.346Z,3.33
2019-02-19T19:42:30.874Z,1.97
2019-02-19T19:45:01.320Z,3.60
2019-02-19T19:47:32.005Z,2.00
2019-02-19T19:50:03.286Z,15.43
2019-02-19T19:52:34.603Z,1.57
2019-02-19T19:55:05.457Z,12.73
2019-02-19T19:57:36.018Z,3.00
2019-02-19T20:00:07.422Z,5.13
2019-02-19T20:02:39.329Z,2.50
2019-02-19T20:05:10.302Z,5.80
2019-02-19T20:07:40.983Z,8.20
2019-02-19T20:10:11.781Z,2.70
2019-02-19T20:12:42.381Z,4.27
2019-02-19T20:15:13.144Z,3.87
2019-02-19T20:17:43.619Z,3.57
2019-02-19T20:20:14.354Z,3.27
2019-02-19T20:22:45.036Z,2.83
2019-02-19T20:25:15.652Z,3.93
2019-02-19T20:27:46.333Z,4.83
2019-02-19T20:30:17.007Z,4.87
2019-02-19T20:32:47.876Z,3.70
2019-02-19T20:35:18.826Z,5.20
2019-02-19T20:37:54.028Z,4.73
2019-02-19T20:40:21.868Z,3.70
2019-02-19T20:42:52.430Z,3.17
2019-02-19T20:45:22.984Z,9.50
2019-02-19T20:47:53.523Z,4.80
2019-02-19T20:50:24.055Z,4.50
2019-02-19T20:52:54.643Z,4.50
2019-02-19T20:55:25.400Z,2.30
2019-02-19T20:57:55.930Z,8.73
2019-02-19T21:00:26.613Z,2.57
2019-02-19T21:02:57.287Z,3.93
2019-02-19T21:05:27.769Z,2.77
2019-02-19T21:07:58.564Z,3.80
2019-02-19T21:10:29.008Z,4.27
2019-02-19T21:12:59.533Z,6.03
2019-02-19T21:15:30.065Z,2.10
2019-02-19T21:18:00.546Z,2.40
2019-02-19T21:20:31.064Z,2.70
2019-02-19T21:23:01.787Z,5.10
2019-02-19T21:25:32.318Z,4.60
2019-02-19T21:28:03.394Z,6.67
2019-02-19T21:30:33.954Z,2.90
2019-02-19T21:33:04.482Z,4.60
2019-02-19T21:35:35.151Z,2.53
2019-02-19T21:38:06.117Z,7.90
2019-02-19T21:40:36.808Z,10.53
2019-02-19T21:43:07.553Z,7.23
2019-02-19T21:45:38.118Z,5.60
2019-02-19T21:48:09.115Z,2.47
2019-02-19T21:50:39.869Z,8.63
2019-02-19T21:53:10.821Z,4.60
2019-02-19T21:55:41.475Z,4.20
2019-02-19T21:58:12.371Z,3.63
2019-02-19T22:00:46.861Z,2.67
2019-02-19T22:03:17.372Z,2.67
2019-02-19T22:05:47.888Z,2.73
2019-02-19T22:08:20.395Z,3.27
2019-02-19T22:10:51.334Z,3.60
2019-02-19T22:13:21.805Z,4.00
2019-02-19T22:15:52.310Z,6.00
2019-02-19T22:18:23.098Z,4.77
2019-02-19T22:20:58.310Z,6.70
2019-02-19T22:23:28.835Z,4.23
2019-02-19T22:25:59.365Z,6.27
2019-02-19T22:28:31.928Z,2.33
2019-02-19T22:31:02.433Z,3.33
2019-02-19T22:33:35.166Z,5.97
2019-02-19T22:36:05.630Z,4.90
2019-02-19T22:38:37.102Z,13.27
2019-02-19T22:41:07.613Z,2.93
2019-02-19T22:43:38.254Z,2.67
2019-02-19T22:46:09.085Z,2.33
2019-02-19T22:48:39.547Z,3.43
2019-02-19T22:51:10.003Z,5.63
2019-02-19T22:53:50.292Z,6.93
2019-02-19T22:56:24.381Z,2.27
2019-02-19T22:58:54.869Z,4.47
2019-02-19T23:01:40.572Z,2.80
2019-02-19T23:04:12.963Z,3.40
2019-02-19T23:06:43.429Z,7.40
2019-02-19T23:09:14.791Z,11.53
2019-02-19T23:11:45.237Z,9.63
2019-02-19T23:14:15.683Z,6.83
2019-02-19T23:16:46.145Z,2.60
2019-02-19T23:19:16.623Z,6.20
2019-02-19T23:21:47.108Z,3.33
2019-02-19T23:24:19.500Z,2.37
2019-02-19T23:26:49.999Z,3.43
2019-02-19T23:29:20.505Z,5.30
2019-02-19T23:31:50.976Z,7.53
2019-02-19T23:34:21.417Z,1.87
2019-02-19T23:36:57.468Z,4.73
2019-02-19T23:39:27.908Z,3.50
2019-02-19T23:41:58.352Z,3.43
2019-02-19T23:44:28.822Z,3.73
2019-02-19T23:46:59.269Z,5.50
2019-02-19T23:49:29.754Z,1.90
2019-02-19T23:52:00.257Z,2.83
2019-02-19T23:54:30.742Z,2.67
2019-02-19T23:57:01.184Z,8.97
2019-02-19T23:59:31.669Z,6.90
